Time;durP1;ratioP1;P1;durP2;ratioP2;P2;SDS_P1;SDS_P2;PMS_P1;PMS_P2;Temp;Humidity;BMP_temperature;BMP_pressure;BME280_temperature;BME280_humidity;BME280_pressure;Samples;Min_cycle;Max_cycle;Signal;HPM_P1;HPM_P2
2024/01/20 00:01:25;;;;;;;;;;;-2.50;99.90;;;;;;5060321;28;19983;-83
2024/01/20 00:03:51;;;;;;;;;;;-2.50;99.90;;;;;;5041538;28;19901;-81
2024/01/20 00:06:17;;;;;;;;;;;-2.50;99.90;;;;;;5040100;28;19909;-80
2024/01/20 00:08:43;;;;;;;;;;;-2.40;99.90;;;;;;5038179;28;19928;-80
2024/01/20 00:11:09;;;;;;;;;;;-2.30;99.90;;;;;;5038932;28;19909;-80
2024/01/20 00:13:34;;;;;;;;;;;-2.30;99.90;;;;;;5056507;28;19924;-80
2024/01/20 00:16:00;;;;;;;;;;;-2.30;99.90;;;;;;5041005;28;19943;-82
2024/01/20 00:21:01;;;;;;;;;;;-2.20;99.90;;;;;;5612150;23;19929;-82
2024/01/20 00:23:27;;;;;;;;;;;-1.90;99.90;;;;;;5061582;28;20038;-81
2024/01/20 00:25:53;;;;;;;;;;;-2.00;99.90;;;;;;5062194;28;19920;-83
2024/01/20 00:28:18;;;;;;;;;;;-2.10;99.90;;;;;;5078492;28;19921;-80
2024/01/20 00:30:44;;;;;;;;;;;-2.00;99.90;;;;;;5060692;28;19916;-81
2024/01/20 00:33:10;;;;;;;;;;;-1.70;99.90;;;;;;5060185;28;19909;-80
2024/01/20 00:35:42;;;;;;;;;;;-1.80;99.90;;;;;;5060576;28;20347;-82
2024/01/20 00:38:08;;;;;;;;;;;-1.50;99.90;;;;;;5060078;28;19897;-82
2024/01/20 00:40:34;;;;;;;;;;;-1.70;99.90;;;;;;5060049;28;19908;-80
2024/01/20 00:45:35;;;;;;;;;;;-1.70;99.90;;;;;;5344653;22;19909;-82
2024/01/20 00:48:00;;;;;;;;;;;-1.60;99.90;;;;;;5060889;28;20452;-79
2024/01/20 01:03:23;;;;;;;;;;;-0.30;99.90;;;;;;5402425;22;19909;-81
2024/01/20 01:08:24;;;;;;;;;;;-0.20;99.90;;;;;;5401588;22;19924;-81
2024/01/20 01:10:49;;;;;;;;;;;-0.30;99.90;;;;;;5061122;28;19944;-83
2024/01/20 01:13:15;;;;;;;;;;;-0.30;99.90;;;;;;5060910;28;19893;-83
2024/01/20 01:15:41;;;;;;;;;;;-0.30;99.90;;;;;;5061082;28;19917;-81
2024/01/20 01:18:07;;;;;;;;;;;-0.40;99.90;;;;;;5061065;28;19898;-80
2024/01/20 01:38:40;;;;;;;;;;;-1.00;99.90;;;;;;6071809;22;19906;-83
2024/01/20 01:41:06;;;;;;;;;;;-0.50;99.90;;;;;;5059493;28;19980;-81
2024/01/20 01:43:31;;;;;;;;;;;-1.00;99.90;;;;;;5075583;28;19974;-80
2024/01/20 01:45:57;;;;;;;;;;;-1.20;99.90;;;;;;5057285;28;19893;-80
2024/01/20 01:48:23;;;;;;;;;;;-1.20;99.90;;;;;;5057899;28;19939;-82
2024/01/20 01:50:49;;;;;;;;;;;-0.70;99.90;;;;;;5058490;28;19960;-80
2024/01/20 01:53:15;;;;;;;;;;;-1.50;99.90;;;;;;5076501;28;19896;-81
2024/01/20 01:55:43;;;;;;;;;;;-1.70;99.90;;;;;;5059120;28;19893;-80
2024/01/20 01:58:09;;;;;;;;;;;-1.80;99.90;;;;;;5059040;28;19919;-80
2024/01/20 02:00:35;;;;;;;;;;;-2.00;99.90;;;;;;5058956;28;19909;-81
2024/01/20 02:03:01;;;;;;;;;;;-2.10;99.90;;;;;;5058636;28;19909;-82
2024/01/20 02:05:27;;;;;;;;;;;-2.20;99.90;;;;;;5058950;28;19932;-80
2024/01/20 02:07:53;;;;;;;;;;;-2.10;99.90;;;;;;5059112;28;19917;-81
2024/01/20 02:10:19;;;;;;;;;;;-1.90;99.90;;;;;;5058205;28;19916;-82
2024/01/20 02:12:45;;;;;;;;;;;-1.90;99.90;;;;;;5057813;28;19909;-82
2024/01/20 02:15:12;;;;;;;;;;;-2.00;99.90;;;;;;5057503;28;19915;-81
2024/01/20 02:17:47;;;;;;;;;;;-2.10;99.90;;;;;;5058706;28;19939;-81
2024/01/20 02:20:13;;;;;;;;;;;-2.00;99.90;;;;;;5058514;28;19915;-81
2024/01/20 02:22:39;;;;;;;;;;;-2.10;99.90;;;;;;5058537;28;19909;-79
2024/01/20 02:25:04;;;;;;;;;;;-2.20;99.90;;;;;;5058699;28;19916;-83
2024/01/20 03:00:12;;;;;;;;;;;-2.80;99.90;;;;;;5656122;22;19909;-81
2024/01/20 03:02:37;;;;;;;;;;;-2.50;99.90;;;;;;5063093;28;19897;-83
2024/01/20 03:10:14;;;;;;;;;;;-2.80;99.90;;;;;;5580877;23;19920;-81
2024/01/20 03:12:40;;;;;;;;;;;-1.40;99.90;;;;;;5062928;28;19980;-82
2024/01/20 03:15:06;;;;;;;;;;;-2.20;99.90;;;;;;5063652;28;19901;-81
2024/01/20 03:35:39;;;;;;;;;;;-2.50;99.90;;;;;;5359260;22;19921;-82
2024/01/20 03:43:16;;;;;;;;;;;-2.50;99.90;;;;;;5451521;22;19909;-80
2024/01/20 03:45:42;;;;;;;;;;;-2.30;99.90;;;;;;5077735;28;19913;-80
2024/01/20 03:48:08;;;;;;;;;;;-2.30;99.90;;;;;;5060922;28;19980;-81
2024/01/20 03:50:34;;;;;;;;;;;-2.60;99.90;;;;;;5078544;28;19912;-81
2024/01/20 03:53:00;;;;;;;;;;;-2.10;99.90;;;;;;5060689;28;19900;-81
2024/01/20 03:55:25;;;;;;;;;;;-2.20;99.90;;;;;;5078040;28;19980;-79
2024/01/20 03:57:51;;;;;;;;;;;-2.20;99.90;;;;;;5072162;28;19909;-80
2024/01/20 04:00:17;;;;;;;;;;;-1.90;99.90;;;;;;5058571;28;19940;-78
2024/01/20 04:02:42;;;;;;;;;;;-2.50;99.90;;;;;;5060127;28;20030;-79
2024/01/20 04:05:08;;;;;;;;;;;-2.70;99.90;;;;;;5077632;28;19919;-82
2024/01/20 04:15:20;;;;;;;;;;;-2.60;99.90;;;;;;5403159;22;19931;-80
2024/01/20 04:17:45;;;;;;;;;;;-2.10;99.90;;;;;;5061314;28;19913;-81
2024/01/20 04:20:11;;;;;;;;;;;-2.60;99.90;;;;;;5078870;28;19908;-81
2024/01/20 04:22:37;;;;;;;;;;;-2.60;99.90;;;;;;5079368;28;19944;-82
2024/01/20 04:25:03;;;;;;;;;;;-2.00;99.90;;;;;;5062118;28;19943;-82
2024/01/20 04:27:28;;;;;;;;;;;-2.40;99.90;;;;;;5079675;28;19924;-83
2024/01/20 04:40:15;;;;;;;;;;;-2.80;99.90;;;;;;5915034;22;19931;-80
2024/01/20 04:42:41;;;;;;;;;;;-2.90;99.90;;;;;;5059292;28;19897;-81
2024/01/20 05:03:14;;;;;;;;;;;-2.80;99.90;;;;;;5361702;22;19909;-79
2024/01/20 05:10:51;;;;;;;;;;;-2.90;99.90;;;;;;5096962;22;19917;-80
2024/01/20 05:13:16;;;;;;;;;;;-2.90;99.90;;;;;;5056381;28;19893;-81
2024/01/20 05:15:42;;;;;;;;;;;-3.00;99.90;;;;;;5056899;28;19924;-80
2024/01/20 05:18:08;;;;;;;;;;;-3.00;99.90;;;;;;5039999;28;19981;-80
2024/01/20 05:25:44;;;;;;;;;;;-3.00;99.90;;;;;;5253198;22;19916;-81
2024/01/20 05:28:10;;;;;;;;;;;-2.70;99.90;;;;;;5076904;28;19901;-81
2024/01/20 05:30:36;;;;;;;;;;;-2.80;99.90;;;;;;5076835;28;19912;-82
2024/01/20 05:33:01;;;;;;;;;;;-2.80;99.90;;;;;;5059015;28;19909;-81
2024/01/20 05:35:27;;;;;;;;;;;-3.30;99.90;;;;;;5071019;28;19916;-80
2024/01/20 05:37:53;;;;;;;;;;;-3.20;99.90;;;;;;5055981;28;19935;-80
2024/01/20 05:40:18;;;;;;;;;;;-2.50;99.90;;;;;;5057281;28;19909;-80
2024/01/20 05:42:44;;;;;;;;;;;-1.90;99.90;;;;;;5056072;28;19893;-80
2024/01/20 05:45:10;;;;;;;;;;;-3.00;99.90;;;;;;5077157;28;19897;-81
2024/01/20 05:47:36;;;;;;;;;;;-3.10;99.90;;;;;;5076824;28;19967;-80
2024/01/20 05:50:05;;;;;;;;;;;-3.00;99.90;;;;;;5059085;28;19909;-82
2024/01/20 05:52:30;;;;;;;;;;;-2.90;99.90;;;;;;5076052;28;19909;-79
2024/01/20 05:54:56;;;;;;;;;;;-3.10;99.90;;;;;;5076897;28;19935;-80
2024/01/20 06:12:54;;;;;;;;;;;-3.30;99.90;;;;;;5408158;23;19916;-80
2024/01/20 06:15:20;;;;;;;;;;;-2.70;99.90;;;;;;5099242;28;20003;-81
2024/01/20 06:17:45;;;;;;;;;;;-3.40;99.90;;;;;;5099161;28;19927;-81
2024/01/20 06:20:11;;;;;;;;;;;-3.40;99.90;;;;;;5081806;28;19919;-81
2024/01/20 06:22:39;;;;;;;;;;;-3.70;99.90;;;;;;5098731;28;19939;-81
2024/01/20 06:25:04;;;;;;;;;;;-3.40;99.90;;;;;;5082608;28;19908;-81
2024/01/20 06:27:30;;;;;;;;;;;-3.70;99.90;;;;;;5081545;28;19903;-80
2024/01/20 06:29:56;;;;;;;;;;;-3.80;99.90;;;;;;5098471;28;19900;-80
2024/01/20 06:32:22;;;;;;;;;;;-3.60;99.90;;;;;;5098814;28;19893;-80
2024/01/20 06:34:47;;;;;;;;;;;-3.50;99.90;;;;;;5082802;28;19909;-81
2024/01/20 06:42:24;;;;;;;;;;;-3.30;99.90;;;;;;5979274;22;19981;-79
2024/01/20 06:44:49;;;;;;;;;;;-3.30;99.90;;;;;;5094923;28;20011;-79
2024/01/20 06:47:15;;;;;;;;;;;-3.50;99.90;;;;;;5096735;28;19936;-80
2024/01/20 06:49:41;;;;;;;;;;;-3.60;99.90;;;;;;5081685;28;19930;-80
2024/01/20 06:52:06;;;;;;;;;;;-2.80;99.90;;;;;;5082184;28;19913;-79
2024/01/20 06:54:32;;;;;;;;;;;-3.00;99.90;;;;;;5099060;28;19915;-80
2024/01/20 06:56:58;;;;;;;;;;;-3.50;99.90;;;;;;5097305;28;19935;-81
2024/01/20 06:59:24;;;;;;;;;;;-3.60;99.90;;;;;;5098801;28;19892;-78
2024/01/20 07:01:49;;;;;;;;;;;-3.40;99.90;;;;;;5098676;28;19913;-80
2024/01/20 07:04:15;;;;;;;;;;;-2.50;99.90;;;;;;5084206;28;19900;-80
2024/01/20 07:06:41;;;;;;;;;;;-3.00;99.90;;;;;;5077807;28;19914;-80
2024/01/20 07:09:07;;;;;;;;;;;-3.40;99.90;;;;;;5080895;28;20340;-80
2024/01/20 07:11:32;;;;;;;;;;;-3.20;99.90;;;;;;5081054;28;19917;-79
2024/01/20 07:13:58;;;;;;;;;;;-3.10;99.90;;;;;;5080679;28;19899;-79
2024/01/20 07:16:24;;;;;;;;;;;-2.00;99.90;;;;;;5098631;28;19912;-80
2024/01/20 07:18:50;;;;;;;;;;;-2.00;99.90;;;;;;5080461;28;19893;-80
2024/01/20 07:21:15;;;;;;;;;;;-1.80;99.90;;;;;;5078952;28;19901;-78
2024/01/20 07:23:41;;;;;;;;;;;-1.50;99.90;;;;;;5044682;28;19909;-80
2024/01/20 07:26:07;;;;;;;;;;;-0.90;99.90;;;;;;5041273;28;19917;-81
2024/01/20 07:28:33;;;;;;;;;;;-1.70;99.90;;;;;;5057984;28;19917;-80
2024/01/20 07:30:58;;;;;;;;;;;-0.80;99.90;;;;;;5049942;28;19909;-78
2024/01/20 07:33:24;;;;;;;;;;;-1.10;99.90;;;;;;5038688;28;19909;-80
2024/01/20 07:35:50;;;;;;;;;;;-0.90;99.90;;;;;;5055372;28;19916;-81
2024/01/20 07:38:16;;;;;;;;;;;-0.20;99.90;;;;;;5065242;28;19939;-81
2024/01/20 07:40:41;;;;;;;;;;;-0.50;99.90;;;;;;5076786;28;19909;-80
2024/01/20 07:43:07;;;;;;;;;;;-0.10;99.90;;;;;;5058209;28;19916;-81
2024/01/20 07:45:32;;;;;;;;;;;0.10;99.90;;;;;;5058834;28;19917;-81
2024/01/20 07:47:58;;;;;;;;;;;0.30;99.90;;;;;;5053956;28;19916;-79
2024/01/20 07:50:24;;;;;;;;;;;0.00;99.90;;;;;;5054035;28;19909;-81
2024/01/20 07:52:49;;;;;;;;;;;0.10;99.90;;;;;;5072880;28;20265;-80
2024/01/20 07:55:15;;;;;;;;;;;0.70;99.90;;;;;;5072989;28;19916;-78
2024/01/20 07:57:41;;;;;;;;;;;0.30;99.90;;;;;;5048929;28;19893;-80
2024/01/20 08:00:08;;;;;;;;;;;0.60;99.90;;;;;;5053141;28;19943;-81
2024/01/20 08:02:33;;;;;;;;;;;0.90;99.90;;;;;;5057996;28;19916;-81
2024/01/20 08:04:59;;;;;;;;;;;2.00;99.90;;;;;;5074907;28;19893;-80
2024/01/20 08:07:25;;;;;;;;;;;2.50;99.90;;;;;;5057731;28;19909;-81
2024/01/20 08:09:50;;;;;;;;;;;2.50;99.90;;;;;;5056969;28;19948;-81
2024/01/20 08:12:16;;;;;;;;;;;2.50;99.90;;;;;;5058356;28;19905;-81
2024/01/20 08:14:41;;;;;;;;;;;3.50;99.90;;;;;;5074996;28;19919;-82
2024/01/20 08:17:07;;;;;;;;;;;3.60;99.90;;;;;;5075367;28;19908;-81
2024/01/20 08:19:32;;;;;;;;;;;3.20;95.60;;;;;;5075690;28;19909;-80
2024/01/20 08:21:58;;;;;;;;;;;2.80;94.70;;;;;;5058413;28;19911;-84
2024/01/20 08:24:24;;;;;;;;;;;3.50;97.50;;;;;;5057886;28;19975;-81
2024/01/20 08:26:49;;;;;;;;;;;3.70;91.90;;;;;;5058078;28;19938;-82
2024/01/20 08:29:17;;;;;;;;;;;3.80;97.00;;;;;;5057687;28;19939;-80
2024/01/20 08:31:42;;;;;;;;;;;3.80;94.90;;;;;;5056961;28;19892;-82
2024/01/20 08:34:08;;;;;;;;;;;3.70;94.00;;;;;;5075459;28;19915;-82
2024/01/20 08:36:34;;;;;;;;;;;3.70;93.80;;;;;;5075109;28;19909;-80
2024/01/20 08:38:59;;;;;;;;;;;3.30;92.40;;;;;;5057697;28;19913;-80
2024/01/20 08:41:25;;;;;;;;;;;3.10;94.90;;;;;;5075097;28;19909;-82
2024/01/20 08:43:51;;;;;;;;;;;2.90;98.10;;;;;;5057028;28;19932;-82
2024/01/20 08:46:16;;;;;;;;;;;2.80;99.90;;;;;;5057434;28;19970;-82
2024/01/20 08:48:42;;;;;;;;;;;3.00;96.50;;;;;;5075352;28;19901;-81
2024/01/20 08:51:08;;;;;;;;;;;3.30;95.70;;;;;;5058254;28;19909;-83
2024/01/20 08:53:33;;;;;;;;;;;2.80;95.30;;;;;;5058216;28;19939;-82
2024/01/20 08:56:00;;;;;;;;;;;2.70;95.60;;;;;;5075564;28;19944;-80
2024/01/20 08:58:25;;;;;;;;;;;2.80;95.30;;;;;;5057246;28;19893;-81
2024/01/20 09:00:51;;;;;;;;;;;2.60;95.20;;;;;;5058274;28;19916;-81
2024/01/20 09:03:17;;;;;;;;;;;2.50;95.10;;;;;;5055838;28;19913;-81
2024/01/20 09:05:43;;;;;;;;;;;2.50;94.60;;;;;;5057717;28;19915;-82
2024/01/20 09:08:10;;;;;;;;;;;1.80;93.60;;;;;;5056963;28;19917;-82
2024/01/20 09:10:36;;;;;;;;;;;2.40;94.80;;;;;;5058060;28;19944;-82
2024/01/20 09:13:03;;;;;;;;;;;2.60;97.30;;;;;;5057768;28;19909;-82
2024/01/20 09:15:28;;;;;;;;;;;2.60;97.30;;;;;;5058005;28;19972;-82
2024/01/20 09:17:54;;;;;;;;;;;2.40;92.90;;;;;;5075088;28;19916;-83
2024/01/20 09:20:20;;;;;;;;;;;2.30;96.50;;;;;;5057785;28;19909;-83
2024/01/20 09:22:46;;;;;;;;;;;2.40;98.40;;;;;;5075124;28;19913;-83
2024/01/20 09:25:12;;;;;;;;;;;2.40;95.60;;;;;;5057464;28;19909;-83
2024/01/20 09:27:38;;;;;;;;;;;2.20;97.60;;;;;;5057152;28;19925;-83
2024/01/20 09:30:05;;;;;;;;;;;2.40;98.20;;;;;;5075243;28;19909;-83
2024/01/20 09:32:33;;;;;;;;;;;2.00;99.90;;;;;;5075030;28;19909;-83
2024/01/20 09:35:05;;;;;;;;;;;2.40;99.90;;;;;;5057658;28;19893;-83
2024/01/20 09:37:31;;;;;;;;;;;2.40;99.90;;;;;;5057779;28;19909;-83
2024/01/20 09:39:57;;;;;;;;;;;2.40;99.90;;;;;;5058033;28;19942;-83
2024/01/20 09:42:23;;;;;;;;;;;2.30;99.90;;;;;;5057104;28;19940;-83
2024/01/20 09:44:50;;;;;;;;;;;2.50;99.90;;;;;;5058680;28;19913;-84
2024/01/20 09:47:16;;;;;;;;;;;2.70;99.90;;;;;;5059853;28;19916;-84
2024/01/20 09:49:42;;;;;;;;;;;2.40;99.90;;;;;;5059177;28;19909;-83
2024/01/20 09:52:12;;;;;;;;;;;2.40;99.90;;;;;;5058757;28;19893;-83
2024/01/20 09:54:43;;;;;;;;;;;2.40;99.90;;;;;;5060115;28;19900;-81
2024/01/20 09:57:11;;;;;;;;;;;2.80;99.90;;;;;;5059361;28;20012;-84
2024/01/20 09:59:39;;;;;;;;;;;2.30;99.90;;;;;;5059755;28;19909;-83
2024/01/20 10:02:06;;;;;;;;;;;2.30;99.90;;;;;;5060315;28;19912;-83
2024/01/20 10:04:33;;;;;;;;;;;2.20;99.90;;;;;;5058446;28;19916;-84
2024/01/20 10:06:59;;;;;;;;;;;2.20;99.90;;;;;;5058453;28;19954;-84
2024/01/20 10:09:28;;;;;;;;;;;2.10;99.90;;;;;;5058722;28;19941;-84
2024/01/20 10:11:55;;;;;;;;;;;2.20;99.90;;;;;;5059440;28;19945;-83
2024/01/20 10:14:21;;;;;;;;;;;2.30;99.90;;;;;;5058949;28;19931;-84
2024/01/20 10:16:47;;;;;;;;;;;2.70;99.90;;;;;;5061474;28;19902;-83
2024/01/20 10:19:13;;;;;;;;;;;2.30;99.90;;;;;;5061418;28;19904;-83
2024/01/20 10:21:41;;;;;;;;;;;2.60;99.90;;;;;;5059765;28;19910;-84
2024/01/20 10:24:07;;;;;;;;;;;2.30;99.90;;;;;;5058534;28;19901;-82
2024/01/20 10:26:42;;;;;;;;;;;2.20;99.90;;;;;;5059185;28;19940;-83
2024/01/20 10:29:09;;;;;;;;;;;2.20;99.90;;;;;;5059191;28;19908;-83
2024/01/20 10:31:35;;;;;;;;;;;2.20;99.90;;;;;;5058463;28;19910;-83
2024/01/20 10:34:01;;;;;;;;;;;2.30;99.90;;;;;;5057634;28;19909;-83
2024/01/20 10:36:27;;;;;;;;;;;2.30;99.90;;;;;;5058400;28;19905;-83
2024/01/20 10:38:53;;;;;;;;;;;2.30;99.90;;;;;;5057036;28;19909;-83
2024/01/20 10:41:23;;;;;;;;;;;2.20;99.90;;;;;;5057801;28;19976;-82
2024/01/20 10:43:53;;;;;;;;;;;2.20;99.90;;;;;;5057243;28;19921;-83
2024/01/20 10:46:23;;;;;;;;;;;2.70;99.90;;;;;;5057046;28;19921;-83
2024/01/20 10:48:52;;;;;;;;;;;2.30;99.90;;;;;;5057384;28;19907;-83
2024/01/20 10:51:21;;;;;;;;;;;2.10;99.90;;;;;;5057061;28;19900;-82
2024/01/20 10:53:49;;;;;;;;;;;2.30;99.90;;;;;;5055950;28;19910;-83
2024/01/20 10:56:16;;;;;;;;;;;2.20;99.90;;;;;;5057719;28;19910;-82
2024/01/20 10:58:45;;;;;;;;;;;2.80;99.90;;;;;;5057654;28;19917;-83
2024/01/20 11:01:11;;;;;;;;;;;2.20;99.90;;;;;;5057275;28;19910;-82
2024/01/20 11:03:37;;;;;;;;;;;2.30;99.90;;;;;;5057481;28;19909;-80
2024/01/20 11:06:03;;;;;;;;;;;2.70;99.90;;;;;;5056539;28;19944;-83
2024/01/20 11:08:29;;;;;;;;;;;2.40;99.90;;;;;;5055898;28;19932;-82
2024/01/20 11:10:54;;;;;;;;;;;2.70;99.90;;;;;;5056780;28;19909;-82
2024/01/20 11:13:24;;;;;;;;;;;2.60;99.90;;;;;;5057265;28;19976;-82
2024/01/20 11:15:51;;;;;;;;;;;2.50;99.90;;;;;;5057097;28;19917;-81
2024/01/20 11:18:21;;;;;;;;;;;2.70;99.90;;;;;;5056304;28;19905;-83
2024/01/20 11:21:03;;;;;;;;;;;3.10;99.90;;;;;;5056060;28;19919;-82
2024/01/20 11:23:29;;;;;;;;;;;2.80;99.90;;;;;;5056218;28;19948;-83
2024/01/20 11:25:55;;;;;;;;;;;3.20;99.90;;;;;;5055734;28;19910;-82
2024/01/20 11:28:34;;;;;;;;;;;3.00;99.90;;;;;;5056521;28;19924;-81
2024/01/20 11:31:00;;;;;;;;;;;2.90;99.90;;;;;;5055698;28;19909;-82
2024/01/20 11:33:26;;;;;;;;;;;2.90;99.90;;;;;;5055310;28;19977;-82
2024/01/20 11:35:52;;;;;;;;;;;3.50;99.90;;;;;;5055629;28;19933;-84
2024/01/20 11:38:17;;;;;;;;;;;2.60;99.90;;;;;;5055303;28;19913;-83
2024/01/20 11:40:43;;;;;;;;;;;2.90;99.90;;;;;;5055721;28;19944;-81
2024/01/20 11:43:12;;;;;;;;;;;2.80;99.90;;;;;;5055965;28;19921;-82
2024/01/20 11:45:38;;;;;;;;;;;2.90;99.90;;;;;;5056867;28;19935;-83
2024/01/20 11:48:05;;;;;;;;;;;2.90;99.90;;;;;;5056128;28;19920;-83
2024/01/20 11:50:30;;;;;;;;;;;2.90;99.90;;;;;;5055987;28;19913;-82
2024/01/20 11:52:56;;;;;;;;;;;2.60;99.90;;;;;;5057375;28;19916;-83
2024/01/20 11:55:22;;;;;;;;;;;2.90;99.90;;;;;;5055988;28;19893;-82
2024/01/20 11:57:47;;;;;;;;;;;2.90;99.90;;;;;;5056539;28;19955;-83
2024/01/20 12:00:14;;;;;;;;;;;3.30;99.90;;;;;;5056168;28;19910;-83
2024/01/20 12:02:46;;;;;;;;;;;3.00;99.90;;;;;;5057382;28;19909;-83
2024/01/20 12:05:12;;;;;;;;;;;3.50;99.90;;;;;;5055601;28;19893;-83
2024/01/20 12:07:38;;;;;;;;;;;2.90;99.90;;;;;;5057464;28;19917;-83
2024/01/20 12:10:03;;;;;;;;;;;2.80;99.90;;;;;;5057461;28;19914;-83
2024/01/20 12:12:29;;;;;;;;;;;3.20;99.90;;;;;;5057258;28;19909;-83
2024/01/20 12:14:55;;;;;;;;;;;2.80;99.90;;;;;;5057453;28;19909;-83
2024/01/20 12:17:22;;;;;;;;;;;2.80;99.90;;;;;;5056675;28;19943;-83
2024/01/20 12:19:48;;;;;;;;;;;2.80;99.90;;;;;;5056700;28;19909;-83
2024/01/20 12:22:14;;;;;;;;;;;2.90;99.90;;;;;;5056525;28;19936;-83
2024/01/20 12:24:45;;;;;;;;;;;3.20;99.90;;;;;;5056951;28;19928;-83
2024/01/20 12:27:10;;;;;;;;;;;2.70;99.90;;;;;;5057062;28;19910;-82
2024/01/20 12:29:36;;;;;;;;;;;3.10;99.90;;;;;;5056185;28;20067;-83
2024/01/20 12:32:03;;;;;;;;;;;2.70;99.90;;;;;;5057094;28;19910;-83
2024/01/20 12:34:35;;;;;;;;;;;2.70;99.90;;;;;;5055538;28;19917;-81
2024/01/20 12:39:42;;;;;;;;;;;2.60;99.90;;;;;;5962846;22;19929;-77
2024/01/20 12:42:07;;;;;;;;;;;2.60;99.90;;;;;;5096199;28;19916;-81
2024/01/20 12:44:33;;;;;;;;;;;2.60;99.90;;;;;;5098719;28;19897;-81
2024/01/20 12:46:59;;;;;;;;;;;2.60;99.90;;;;;;5093545;28;19908;-79
2024/01/20 12:49:24;;;;;;;;;;;2.50;99.90;;;;;;5090435;28;19920;-80
2024/01/20 12:51:50;;;;;;;;;;;2.60;99.90;;;;;;5096533;28;19908;-81
2024/01/20 12:54:16;;;;;;;;;;;2.70;99.90;;;;;;5096609;28;19900;-81
2024/01/20 12:56:41;;;;;;;;;;;2.70;99.90;;;;;;5096523;28;19959;-80
2024/01/20 12:59:07;;;;;;;;;;;2.70;99.90;;;;;;5096529;28;19955;-80
2024/01/20 13:01:33;;;;;;;;;;;2.70;99.90;;;;;;5090289;28;19892;-81
2024/01/20 13:03:59;;;;;;;;;;;2.60;99.90;;;;;;5097120;28;19913;-80
2024/01/20 13:06:24;;;;;;;;;;;2.60;99.90;;;;;;5089595;28;19970;-81
2024/01/20 13:08:50;;;;;;;;;;;2.60;99.90;;;;;;5097774;28;19921;-80
2024/01/20 13:11:16;;;;;;;;;;;2.70;99.90;;;;;;5090370;28;19892;-79
2024/01/20 13:13:42;;;;;;;;;;;2.60;99.90;;;;;;5082262;28;19908;-79
2024/01/20 13:16:07;;;;;;;;;;;2.50;99.90;;;;;;5087496;28;19912;-80
2024/01/20 13:18:33;;;;;;;;;;;2.50;99.90;;;;;;5083890;28;20007;-78
2024/01/20 13:20:59;;;;;;;;;;;2.60;99.90;;;;;;5087061;28;19908;-77
2024/01/20 13:23:25;;;;;;;;;;;3.00;99.90;;;;;;5086283;28;20376;-78
2024/01/20 13:25:50;;;;;;;;;;;2.70;99.90;;;;;;5082384;28;19979;-77
2024/01/20 13:28:17;;;;;;;;;;;3.00;99.90;;;;;;5076953;28;19974;-78
2024/01/20 13:30:43;;;;;;;;;;;3.10;99.90;;;;;;5087877;28;20313;-77
2024/01/20 13:33:08;;;;;;;;;;;2.50;99.90;;;;;;5086733;28;19913;-77
2024/01/20 13:35:34;;;;;;;;;;;2.60;99.90;;;;;;5084748;28;19908;-77
2024/01/20 13:38:03;;;;;;;;;;;2.40;99.90;;;;;;5091610;28;19963;-78
2024/01/20 13:40:28;;;;;;;;;;;2.50;99.90;;;;;;5083345;28;19928;-78
2024/01/20 13:42:54;;;;;;;;;;;2.90;99.90;;;;;;5091867;28;19976;-78
2024/01/20 13:45:19;;;;;;;;;;;3.00;99.90;;;;;;5079270;28;19919;-77
2024/01/20 13:47:45;;;;;;;;;;;3.00;99.90;;;;;;5089309;28;19923;-78
2024/01/20 13:50:10;;;;;;;;;;;3.10;99.90;;;;;;5088689;28;19912;-77
2024/01/20 13:52:36;;;;;;;;;;;2.50;99.90;;;;;;5079667;28;19930;-77
2024/01/20 13:55:02;;;;;;;;;;;2.60;99.90;;;;;;5084193;28;19916;-77
2024/01/20 13:57:28;;;;;;;;;;;2.50;99.90;;;;;;5077700;28;20411;-77
2024/01/20 13:59:53;;;;;;;;;;;2.50;99.90;;;;;;5085141;28;19987;-78
2024/01/20 14:02:19;;;;;;;;;;;3.00;99.90;;;;;;5085841;28;19944;-78
2024/01/20 14:04:45;;;;;;;;;;;2.50;99.90;;;;;;5087070;28;20384;-78
2024/01/20 14:07:11;;;;;;;;;;;2.50;99.90;;;;;;5077373;28;20387;-78
2024/01/20 14:09:37;;;;;;;;;;;2.40;99.90;;;;;;5087906;28;19916;-78
2024/01/20 14:12:02;;;;;;;;;;;2.40;99.90;;;;;;5085463;28;19909;-79
2024/01/20 14:14:28;;;;;;;;;;;2.40;99.90;;;;;;5079535;28;19913;-78
2024/01/20 14:16:55;;;;;;;;;;;2.40;99.90;;;;;;5087386;28;20293;-78
2024/01/20 14:19:20;;;;;;;;;;;2.90;99.90;;;;;;5081267;28;19916;-78
2024/01/20 14:21:47;;;;;;;;;;;2.70;99.90;;;;;;5087341;28;19909;-80
2024/01/20 14:24:12;;;;;;;;;;;2.30;99.90;;;;;;5077233;28;20289;-78
2024/01/20 14:26:38;;;;;;;;;;;2.30;99.90;;;;;;5085728;28;19913;-79
2024/01/20 14:29:07;;;;;;;;;;;2.30;99.90;;;;;;5091323;28;19916;-78
2024/01/20 14:31:33;;;;;;;;;;;2.70;99.90;;;;;;5085632;28;19912;-78
2024/01/20 14:33:59;;;;;;;;;;;2.30;99.90;;;;;;5096264;28;19919;-79
2024/01/20 14:36:24;;;;;;;;;;;2.20;99.90;;;;;;5095667;28;19944;-79
2024/01/20 14:38:50;;;;;;;;;;;2.30;99.90;;;;;;5096037;28;20003;-79
2024/01/20 14:41:15;;;;;;;;;;;2.10;99.90;;;;;;5091871;28;19992;-78
2024/01/20 14:43:41;;;;;;;;;;;2.10;99.90;;;;;;5095157;28;19909;-78
2024/01/20 14:46:07;;;;;;;;;;;2.10;99.90;;;;;;5116089;28;19908;-78
2024/01/20 14:48:33;;;;;;;;;;;2.10;99.90;;;;;;5093770;28;19959;-78
2024/01/20 14:50:58;;;;;;;;;;;1.90;99.90;;;;;;5097720;28;19934;-78
2024/01/20 14:53:24;;;;;;;;;;;1.90;99.90;;;;;;5097670;28;19908;-79
2024/01/20 14:55:49;;;;;;;;;;;1.80;99.90;;;;;;5097837;28;19915;-79
2024/01/20 14:58:15;;;;;;;;;;;1.80;99.90;;;;;;5113824;28;19923;-79
2024/01/20 15:00:40;;;;;;;;;;;1.80;99.90;;;;;;5097172;28;19940;-79
2024/01/20 15:03:06;;;;;;;;;;;1.60;99.90;;;;;;5097433;28;19959;-78
2024/01/20 15:05:31;;;;;;;;;;;1.60;99.90;;;;;;5093856;28;19915;-79
2024/01/20 15:07:57;;;;;;;;;;;1.50;99.90;;;;;;5107006;28;19920;-78
2024/01/20 15:10:23;;;;;;;;;;;1.60;99.90;;;;;;5113245;28;20288;-79
2024/01/20 15:12:48;;;;;;;;;;;1.40;99.90;;;;;;5112747;28;19916;-78
2024/01/20 15:15:14;;;;;;;;;;;1.40;99.90;;;;;;5111229;28;19908;-79
2024/01/20 15:17:40;;;;;;;;;;;1.20;99.90;;;;;;5097913;28;19908;-79
2024/01/20 15:20:06;;;;;;;;;;;1.20;99.90;;;;;;5098029;28;20007;-79
2024/01/20 15:22:31;;;;;;;;;;;1.40;99.90;;;;;;5116516;28;19892;-81
2024/01/20 15:24:57;;;;;;;;;;;1.10;99.90;;;;;;5101858;28;19912;-79
2024/01/20 15:27:23;;;;;;;;;;;1.00;99.90;;;;;;5115281;28;20082;-79
2024/01/20 15:29:49;;;;;;;;;;;1.40;99.90;;;;;;5116230;28;19919;-80
2024/01/20 15:32:14;;;;;;;;;;;0.90;99.90;;;;;;5098509;28;19930;-79
2024/01/20 15:34:40;;;;;;;;;;;1.50;99.90;;;;;;5099842;28;20400;-80
2024/01/20 15:37:05;;;;;;;;;;;0.80;99.90;;;;;;5115413;28;19915;-79
2024/01/20 15:39:31;;;;;;;;;;;1.10;99.90;;;;;;5115564;28;19923;-79
2024/01/20 15:41:57;;;;;;;;;;;1.10;99.90;;;;;;5116578;28;19908;-79
2024/01/20 15:44:22;;;;;;;;;;;1.50;99.90;;;;;;5099098;28;20285;-79
2024/01/20 15:46:48;;;;;;;;;;;0.50;99.90;;;;;;5099016;28;19915;-79
2024/01/20 15:49:15;;;;;;;;;;;0.80;99.90;;;;;;5116824;28;19920;-78
2024/01/20 15:51:41;;;;;;;;;;;0.50;99.90;;;;;;5098353;28;19948;-79
2024/01/20 15:54:06;;;;;;;;;;;0.70;99.90;;;;;;5116224;28;19892;-78
2024/01/20 15:56:39;;;;;;;;;;;0.70;99.90;;;;;;5099344;28;19975;-79
2024/01/20 15:59:04;;;;;;;;;;;0.50;99.90;;;;;;5098689;28;19892;-79
2024/01/20 16:01:30;;;;;;;;;;;0.70;99.90;;;;;;5099464;28;19916;-79
2024/01/20 16:03:56;;;;;;;;;;;0.60;99.90;;;;;;5098640;28;19939;-80
2024/01/20 16:06:21;;;;;;;;;;;0.30;99.90;;;;;;5116829;28;20391;-79
2024/01/20 16:08:47;;;;;;;;;;;0.40;99.90;;;;;;5098305;28;19907;-79
2024/01/20 16:11:12;;;;;;;;;;;-0.10;99.90;;;;;;5098406;28;19908;-79
2024/01/20 16:13:38;;;;;;;;;;;1.50;99.90;;;;;;5116691;28;19954;-79
2024/01/20 16:16:04;;;;;;;;;;;0.10;99.90;;;;;;5116934;28;19908;-79
2024/01/20 16:21:05;;;;;;;;;;;0.10;99.90;;;;;;4224877;26;19963;-80
2024/01/20 16:23:30;;;;;;;;;;;0.20;99.90;;;;;;5070195;28;19909;-80
2024/01/20 16:25:56;;;;;;;;;;;0.20;99.90;;;;;;5088491;28;19915;-80
2024/01/20 16:28:21;;;;;;;;;;;0.30;99.90;;;;;;5089130;28;19923;-80
2024/01/20 16:30:47;;;;;;;;;;;0.60;99.90;;;;;;5088506;28;19958;-80
2024/01/20 16:33:12;;;;;;;;;;;0.40;99.90;;;;;;5070087;28;19944;-80
2024/01/20 16:35:38;;;;;;;;;;;0.60;99.90;;;;;;5071621;28;19912;-80
2024/01/20 16:38:03;;;;;;;;;;;0.90;99.90;;;;;;5076559;28;19893;-80
2024/01/20 16:40:29;;;;;;;;;;;1.10;99.90;;;;;;5088816;28;19908;-81
2024/01/20 16:42:54;;;;;;;;;;;0.90;99.90;;;;;;5087570;28;19958;-79
2024/01/20 16:45:20;;;;;;;;;;;0.60;99.90;;;;;;5087221;28;19912;-80
2024/01/20 16:47:46;;;;;;;;;;;0.60;99.90;;;;;;5087036;28;19913;-80
2024/01/20 16:50:11;;;;;;;;;;;0.50;99.90;;;;;;5069419;28;19913;-81
2024/01/20 16:52:37;;;;;;;;;;;0.50;99.90;;;;;;5086570;28;19912;-80
2024/01/20 16:55:02;;;;;;;;;;;0.50;99.90;;;;;;5086350;28;19904;-79
2024/01/20 16:57:28;;;;;;;;;;;0.80;99.90;;;;;;5086638;28;20262;-81
2024/01/20 16:59:55;;;;;;;;;;;1.10;99.90;;;;;;5085592;28;20400;-79
2024/01/20 17:02:20;;;;;;;;;;;0.80;99.90;;;;;;5086798;28;19963;-80
2024/01/20 17:04:46;;;;;;;;;;;1.50;99.90;;;;;;5087305;28;19970;-79
2024/01/20 17:07:11;;;;;;;;;;;1.00;99.90;;;;;;5069706;28;19919;-80
2024/01/20 17:09:39;;;;;;;;;;;0.60;99.90;;;;;;5068691;28;19923;-80
2024/01/20 17:12:05;;;;;;;;;;;0.70;99.90;;;;;;5086141;28;19909;-80